createdAt,value
2023-01-20T00:02:24.276Z,9.15
2023-01-20T00:04:52.291Z,5.30
2023-01-20T00:07:27.624Z,12.93
2023-01-20T00:09:56.400Z,4.47
2023-01-20T00:12:24.549Z,4.63
2023-01-20T00:14:52.170Z,6.38
2023-01-20T00:17:20.277Z,4.15
2023-01-20T00:19:48.302Z,6.35
2023-01-20T00:22:16.217Z,4.85
2023-01-20T00:25:10.769Z,7.28
2023-01-20T00:27:38.205Z,5.55
2023-01-20T00:30:07.052Z,7.47
2023-01-20T00:35:37.584Z,4.53
2023-01-20T00:38:30.220Z,3.80
2023-01-20T00:40:58.261Z,8.63
2023-01-20T00:46:18.261Z,6.38
2023-01-20T00:48:46.322Z,5.70
2023-01-20T00:51:14.567Z,4.95
2023-01-20T00:53:42.302Z,4.10
2023-01-20T00:56:10.194Z,7.93
2023-01-20T00:58:38.215Z,8.20
2023-01-20T01:01:06.429Z,10.13
2023-01-20T01:03:38.701Z,6.65
2023-01-20T01:06:17.131Z,7.15
2023-01-20T01:08:45.148Z,6.63
2023-01-20T01:11:12.996Z,6.47
2023-01-20T01:13:41.208Z,3.67
2023-01-20T01:16:34.301Z,9.20
2023-01-20T01:19:02.595Z,8.75
2023-01-20T01:21:30.316Z,6.15
2023-01-20T01:24:03.243Z,4.70
2023-01-20T01:26:30.313Z,5.18
2023-01-20T01:29:24.353Z,5.43
2023-01-20T01:31:52.191Z,12.27
2023-01-20T01:34:20.273Z,9.50
2023-01-20T01:36:53.229Z,8.20
2023-01-20T01:39:20.470Z,5.80
2023-01-20T01:41:48.175Z,10.85
2023-01-20T01:44:16.446Z,7.07
2023-01-20T01:46:44.324Z,11.23
2023-01-20T01:49:42.236Z,10.38
2023-01-20T01:52:13.192Z,12.73
2023-01-20T01:54:50.674Z,13.68
2023-01-20T01:57:25.157Z,11.00
2023-01-20T01:59:52.488Z,9.93
2023-01-20T02:02:20.524Z,13.45
2023-01-20T02:04:52.227Z,12.27
2023-01-20T02:07:21.412Z,18.33
2023-01-20T02:09:48.242Z,19.45
2023-01-20T02:12:24.196Z,17.45
2023-01-20T02:18:06.067Z,21.27
2023-01-20T02:21:02.132Z,15.02
2023-01-20T02:24:23.372Z,17.10
2023-01-20T02:27:30.941Z,20.15
2023-01-20T02:30:24.787Z,17.92
2023-01-20T02:33:12.384Z,16.48
2023-01-20T02:35:46.293Z,18.92
2023-01-20T02:38:41.776Z,17.58
2023-01-20T02:41:35.208Z,23.40
2023-01-20T02:44:11.088Z,17.50
2023-01-20T02:46:47.963Z,22.58
2023-01-20T02:49:39.762Z,19.77
2023-01-20T02:52:16.959Z,19.92
2023-01-20T02:57:59.620Z,27.33
2023-01-20T03:00:58.101Z,21.38
2023-01-20T03:03:33.341Z,24.63
2023-01-20T03:06:03.915Z,23.20
2023-01-20T03:08:33.392Z,18.77
2023-01-20T03:11:05.313Z,25.88
2023-01-20T03:13:41.288Z,19.73
2023-01-20T03:16:12.008Z,22.25
2023-01-20T03:18:40.533Z,22.83
2023-01-20T03:21:14.889Z,20.17
2023-01-20T03:26:40.230Z,29.30
2023-01-20T03:29:11.670Z,21.23
2023-01-20T03:31:50.903Z,24.33
2023-01-20T03:34:26.162Z,26.50
2023-01-20T03:36:56.156Z,21.30
2023-01-20T03:39:25.103Z,31.88
2023-01-20T03:42:52.962Z,25.55
2023-01-20T03:46:00.273Z,24.42
2023-01-20T03:48:56.907Z,28.17
2023-01-20T03:51:37.662Z,26.40
2023-01-20T03:57:16.619Z,24.92
2023-01-20T03:59:47.666Z,31.88
2023-01-20T04:02:22.470Z,28.25
2023-01-20T04:04:52.320Z,30.25
2023-01-20T04:10:18.434Z,29.20
2023-01-20T04:12:46.240Z,39.75
2023-01-20T04:15:15.158Z,34.75
2023-01-20T04:20:34.210Z,35.95
2023-01-20T04:23:02.731Z,35.55
2023-01-20T04:25:32.369Z,37.50
2023-01-20T04:28:00.242Z,30.23
2023-01-20T04:30:28.319Z,38.75
2023-01-20T04:32:56.210Z,31.23
2023-01-20T04:35:24.344Z,30.85
2023-01-20T04:37:52.225Z,36.28
2023-01-20T04:40:20.314Z,30.02
2023-01-20T04:42:48.243Z,38.33
2023-01-20T04:45:17.568Z,36.40
2023-01-20T04:47:46.194Z,34.47
2023-01-20T04:50:15.343Z,32.28
2023-01-20T04:52:42.664Z,38.53
2023-01-20T04:55:16.628Z,34.25
2023-01-20T04:57:52.734Z,35.08
2023-01-20T05:00:27.300Z,39.97
2023-01-20T05:03:01.041Z,33.53
2023-01-20T05:05:59.959Z,32.47
2023-01-20T05:08:28.277Z,31.65
2023-01-20T05:10:56.348Z,34.35
2023-01-20T05:13:24.221Z,35.63
2023-01-20T05:15:57.231Z,34.47
2023-01-20T05:18:24.314Z,32.58
2023-01-20T05:20:56.190Z,41.72
2023-01-20T05:23:24.214Z,33.72
2023-01-20T05:25:56.193Z,33.20
2023-01-20T05:28:24.321Z,36.10
2023-01-20T05:30:57.283Z,29.42
2023-01-20T05:33:32.755Z,28.98
2023-01-20T05:39:02.172Z,30.75
2023-01-20T05:41:30.343Z,31.05
2023-01-20T05:43:58.285Z,26.30
2023-01-20T05:46:31.234Z,34.00
2023-01-20T05:48:58.224Z,36.10
2023-01-20T05:51:31.211Z,31.17
2023-01-20T05:53:58.428Z,38.53
2023-01-20T05:56:26.231Z,26.88
2023-01-20T05:58:56.184Z,32.17
2023-01-20T06:01:24.357Z,28.90
2023-01-20T06:03:52.195Z,33.13
2023-01-20T06:06:20.234Z,34.33
2023-01-20T06:08:49.538Z,29.52
2023-01-20T06:11:17.870Z,31.13
2023-01-20T06:19:58.703Z,32.03
2023-01-20T06:22:26.967Z,29.77
2023-01-20T06:24:54.246Z,35.03
2023-01-20T06:27:22.258Z,29.42
2023-01-20T06:29:50.927Z,33.80
2023-01-20T06:32:18.305Z,33.55
2023-01-20T06:34:46.219Z,24.98
2023-01-20T06:37:14.353Z,28.13
2023-01-20T06:39:42.175Z,29.83
2023-01-20T06:42:15.320Z,27.35
2023-01-20T06:44:44.220Z,27.17
2023-01-20T06:50:30.199Z,29.50
2023-01-20T06:53:02.497Z,23.50
2023-01-20T06:55:30.291Z,31.55
2023-01-20T06:58:02.190Z,29.20
2023-01-20T07:00:30.320Z,28.15
2023-01-20T07:02:58.431Z,24.42
2023-01-20T07:05:38.894Z,31.20
2023-01-20T07:08:17.360Z,29.60
2023-01-20T07:10:44.852Z,26.75
2023-01-20T07:13:18.336Z,28.70
2023-01-20T07:15:46.333Z,29.63
2023-01-20T07:18:39.726Z,30.08
2023-01-20T07:21:11.398Z,30.27
2023-01-20T07:23:38.496Z,29.90
2023-01-20T07:26:09.835Z,28.77
2023-01-20T07:28:42.461Z,32.30
2023-01-20T07:31:19.142Z,34.33
2023-01-20T07:33:47.267Z,31.55
2023-01-20T07:36:20.398Z,28.23
2023-01-20T07:38:52.162Z,33.90
2023-01-20T07:41:21.263Z,28.85
2023-01-20T07:46:51.323Z,31.92
2023-01-20T07:49:18.243Z,26.35
2023-01-20T07:51:51.212Z,31.08
2023-01-20T07:54:18.241Z,28.00
2023-01-20T07:56:46.234Z,31.02
2023-01-20T07:59:14.457Z,29.45
2023-01-20T08:01:42.892Z,37.92
2023-01-20T08:04:18.172Z,32.65
2023-01-20T08:06:50.808Z,29.75
2023-01-20T08:09:18.438Z,25.05
2023-01-20T08:11:47.888Z,28.65
2023-01-20T08:14:40.572Z,28.35
2023-01-20T08:20:00.492Z,31.05
2023-01-20T08:22:59.595Z,25.88
2023-01-20T08:25:28.206Z,29.33
2023-01-20T08:27:56.233Z,22.90
2023-01-20T08:30:29.564Z,25.33
2023-01-20T08:35:52.263Z,28.33
2023-01-20T08:38:20.252Z,25.75
2023-01-20T08:40:48.279Z,27.25
2023-01-20T08:43:16.256Z,27.05
2023-01-20T08:45:45.585Z,29.20
2023-01-20T08:48:14.263Z,24.58
2023-01-20T08:50:42.218Z,28.17
2023-01-20T08:53:35.426Z,28.58
2023-01-20T08:56:03.118Z,24.95
2023-01-20T08:58:36.676Z,21.88
2023-01-20T09:01:17.053Z,26.70
2023-01-20T09:03:55.427Z,23.48
2023-01-20T09:06:39.247Z,23.70
2023-01-20T09:09:06.323Z,21.75
2023-01-20T09:11:34.496Z,23.63
2023-01-20T09:14:02.672Z,20.52
2023-01-20T09:16:30.592Z,22.67
2023-01-20T09:18:58.289Z,26.00
2023-01-20T09:21:30.195Z,22.30
2023-01-20T09:23:58.240Z,24.15
2023-01-20T09:26:51.464Z,20.83
2023-01-20T09:29:20.017Z,25.25
2023-01-20T09:31:53.853Z,23.15
2023-01-20T09:34:29.361Z,23.08
2023-01-20T09:37:21.655Z,29.95
2023-01-20T09:40:38.057Z,21.85
2023-01-20T09:43:54.859Z,20.45
2023-01-20T09:47:36.456Z,22.77
2023-01-20T09:54:28.923Z,25.60
2023-01-20T09:57:07.939Z,27.50
2023-01-20T09:59:46.582Z,20.13
2023-01-20T10:05:19.709Z,29.42
2023-01-20T10:07:58.663Z,25.05
2023-01-20T10:10:35.497Z,24.10
2023-01-20T10:13:16.555Z,31.23
2023-01-20T10:15:53.927Z,26.40
2023-01-20T10:18:46.484Z,29.90
2023-01-20T10:21:27.805Z,26.52
2023-01-20T10:24:00.319Z,37.53
2023-01-20T10:26:39.573Z,29.40
2023-01-20T10:29:11.565Z,32.83
2023-01-20T10:32:09.923Z,31.60
2023-01-20T10:34:45.953Z,24.00
2023-01-20T10:37:17.543Z,33.15
2023-01-20T10:40:36.448Z,29.65
2023-01-20T10:43:13.836Z,29.13
2023-01-20T10:46:10.395Z,31.80
2023-01-20T10:48:59.040Z,30.45
2023-01-20T10:51:42.573Z,24.65
2023-01-20T10:54:20.121Z,27.75
2023-01-20T10:56:53.797Z,30.58
2023-01-20T10:59:46.332Z,33.13
2023-01-20T11:02:25.737Z,29.08
2023-01-20T11:05:03.544Z,26.50
2023-01-20T11:07:41.548Z,25.67
2023-01-20T11:10:24.427Z,22.55
2023-01-20T11:15:56.479Z,20.25
2023-01-20T11:18:27.950Z,20.90
2023-01-20T11:21:26.675Z,23.48
2023-01-20T11:26:48.366Z,21.98
2023-01-20T11:29:16.142Z,22.92
2023-01-20T11:31:47.489Z,26.02
2023-01-20T11:34:22.179Z,20.20
2023-01-20T11:37:16.054Z,28.77
2023-01-20T11:39:50.012Z,22.92
2023-01-20T11:42:20.598Z,25.73
2023-01-20T11:44:50.093Z,19.38
2023-01-20T11:47:30.524Z,21.63
2023-01-20T11:50:04.278Z,20.23
2023-01-20T11:52:42.746Z,22.48
2023-01-20T11:55:13.419Z,21.73
2023-01-20T12:01:03.124Z,22.65
2023-01-20T12:03:54.812Z,20.58
2023-01-20T12:06:30.484Z,22.98
2023-01-20T12:09:10.742Z,24.38
2023-01-20T12:11:59.517Z,20.25
2023-01-20T12:17:45.134Z,21.42
2023-01-20T12:24:03.082Z,23.63
2023-01-20T12:26:34.801Z,17.15
2023-01-20T12:29:25.191Z,20.00
2023-01-20T12:31:54.417Z,17.77
2023-01-20T12:34:30.261Z,16.85
2023-01-20T12:37:43.412Z,20.67
2023-01-20T12:40:45.611Z,24.50
2023-01-20T12:43:41.592Z,14.98
2023-01-20T12:46:38.190Z,19.77
2023-01-20T12:49:24.440Z,19.90
2023-01-20T12:52:22.787Z,18.70
2023-01-20T12:55:11.216Z,19.60
2023-01-20T12:57:50.923Z,17.92
2023-01-20T13:00:40.340Z,16.55
2023-01-20T13:03:26.650Z,21.90
2023-01-20T13:06:37.312Z,24.05
2023-01-20T13:09:09.885Z,20.73
2023-01-20T13:11:53.503Z,16.15
2023-01-20T13:14:31.946Z,19.25
2023-01-20T13:17:12.958Z,20.13
2023-01-20T13:19:41.548Z,18.40
2023-01-20T13:22:14.686Z,19.77
2023-01-20T13:24:45.963Z,20.95
2023-01-20T13:27:17.592Z,18.52
2023-01-20T13:29:59.070Z,19.95
2023-01-20T13:32:43.089Z,17.02
2023-01-20T13:35:25.191Z,21.02
2023-01-20T13:38:01.633Z,23.23
2023-01-20T13:43:24.940Z,16.80
2023-01-20T13:46:12.454Z,16.00
2023-01-20T13:49:04.098Z,19.23
2023-01-20T13:51:43.933Z,13.88
2023-01-20T13:54:25.310Z,21.25
2023-01-20T13:56:52.628Z,23.00
2023-01-20T13:59:20.165Z,21.95
2023-01-20T14:01:53.264Z,20.92
2023-01-20T14:04:21.942Z,19.25
2023-01-20T14:06:57.414Z,18.95
2023-01-20T14:09:26.077Z,18.42
2023-01-20T14:11:58.297Z,21.83
2023-01-20T14:14:33.819Z,22.77
2023-01-20T14:17:28.214Z,19.10
2023-01-20T14:20:28.182Z,19.92
2023-01-20T14:22:54.346Z,17.40
2023-01-20T14:29:44.845Z,21.92
2023-01-20T14:32:34.874Z,27.05
2023-01-20T14:35:12.709Z,20.27
2023-01-20T14:38:17.714Z,20.27
2023-01-20T14:41:14.894Z,18.75
2023-01-20T14:43:48.251Z,19.15
2023-01-20T14:46:23.307Z,20.50
2023-01-20T14:49:02.136Z,26.65
2023-01-20T14:51:30.585Z,18.65
2023-01-20T14:54:36.065Z,18.77
2023-01-20T15:00:28.022Z,17.38
2023-01-20T15:03:11.234Z,18.60
2023-01-20T15:05:59.945Z,17.05
2023-01-20T15:08:37.635Z,19.02
2023-01-20T15:11:19.711Z,16.13
2023-01-20T15:14:12.850Z,18.17
2023-01-20T15:16:46.786Z,19.00
2023-01-20T15:22:26.908Z,22.08
2023-01-20T15:25:17.213Z,17.45
2023-01-20T15:27:44.261Z,17.17
2023-01-20T15:30:21.643Z,22.25
2023-01-20T15:32:51.847Z,17.88
2023-01-20T15:35:57.872Z,22.13
2023-01-20T15:38:18.445Z,15.63
2023-01-20T15:40:46.341Z,18.48
2023-01-20T15:43:21.490Z,24.02
2023-01-20T15:45:48.406Z,17.75
2023-01-20T15:48:21.374Z,17.70
2023-01-20T15:50:51.813Z,19.92
2023-01-20T15:53:24.472Z,19.77
2023-01-20T15:58:44.334Z,22.40
2023-01-20T16:01:19.549Z,24.52
2023-01-20T16:03:53.357Z,20.50
2023-01-20T16:06:22.271Z,18.60
2023-01-20T16:08:55.696Z,21.80
2023-01-20T16:11:30.466Z,27.23
2023-01-20T16:14:24.408Z,20.08
2023-01-20T16:16:52.412Z,27.27
2023-01-20T16:19:22.963Z,25.27
2023-01-20T16:21:52.655Z,29.45
2023-01-20T16:24:22.807Z,24.88
2023-01-20T16:26:54.243Z,25.17
2023-01-20T16:29:36.756Z,24.45
2023-01-20T16:32:04.729Z,25.30
2023-01-20T16:34:32.339Z,21.20
2023-01-20T16:37:06.861Z,23.30
2023-01-20T16:39:52.544Z,21.02
2023-01-20T16:43:24.292Z,25.42
2023-01-20T16:48:36.350Z,22.23
2023-01-20T16:51:12.411Z,30.60
2023-01-20T16:53:40.390Z,30.33
2023-01-20T16:56:16.007Z,27.77
2023-01-20T16:58:46.953Z,28.75
2023-01-20T17:01:14.311Z,28.58
2023-01-20T17:03:42.698Z,24.45
2023-01-20T17:06:18.016Z,23.23
2023-01-20T17:08:52.352Z,24.42
2023-01-20T17:14:17.328Z,25.95
2023-01-20T17:16:44.304Z,26.00
2023-01-20T17:19:36.280Z,27.00
2023-01-20T17:22:04.409Z,28.35
2023-01-20T17:24:39.557Z,24.02
2023-01-20T17:27:06.319Z,22.00
2023-01-20T17:29:35.523Z,29.65
2023-01-20T17:32:06.747Z,22.55
2023-01-20T17:34:34.523Z,34.05
2023-01-20T17:37:07.315Z,27.52
2023-01-20T17:39:39.508Z,23.48
2023-01-20T17:42:06.604Z,30.08
2023-01-20T17:44:35.313Z,23.30
2023-01-20T17:47:07.478Z,26.38
2023-01-20T17:50:00.252Z,29.90
2023-01-20T17:52:28.986Z,30.75
2023-01-20T17:54:56.211Z,28.27
2023-01-20T17:57:53.448Z,29.17
2023-01-20T18:00:23.525Z,32.85
2023-01-20T18:02:59.329Z,38.83
2023-01-20T18:05:28.263Z,31.17
2023-01-20T18:07:57.862Z,30.58
2023-01-20T18:10:32.400Z,32.20
2023-01-20T18:13:24.025Z,35.28
2023-01-20T18:16:10.568Z,33.90
2023-01-20T18:19:30.435Z,34.17
2023-01-20T18:22:09.041Z,36.42
2023-01-20T18:25:07.529Z,31.63
2023-01-20T18:27:44.111Z,32.22
2023-01-20T18:30:42.676Z,41.97
2023-01-20T18:33:43.468Z,35.35
2023-01-20T18:36:41.285Z,32.50
2023-01-20T18:39:13.455Z,35.55
2023-01-20T18:41:43.365Z,39.45
2023-01-20T18:44:36.266Z,39.20
2023-01-20T18:47:09.684Z,41.42
2023-01-20T18:49:38.256Z,42.70
2023-01-20T18:52:06.294Z,35.67
2023-01-20T18:57:28.238Z,34.13
2023-01-20T19:00:47.875Z,36.28
2023-01-20T19:03:16.314Z,31.52
2023-01-20T19:05:44.316Z,35.78
2023-01-20T19:08:40.028Z,39.20
2023-01-20T19:11:17.930Z,38.47
2023-01-20T19:13:48.682Z,41.28
2023-01-20T19:16:25.870Z,37.83
2023-01-20T19:18:56.502Z,45.15
2023-01-20T19:21:25.807Z,39.50
2023-01-20T19:24:01.252Z,38.47
2023-01-20T19:26:28.754Z,40.20
2023-01-20T19:29:02.672Z,41.60
2023-01-20T19:31:55.749Z,38.63
2023-01-20T19:34:25.826Z,37.83
2023-01-20T19:36:54.218Z,43.00
2023-01-20T19:39:22.434Z,40.40
2023-01-20T19:41:52.782Z,44.42
2023-01-20T19:44:20.935Z,38.33
2023-01-20T19:46:54.426Z,37.05
2023-01-20T19:49:24.657Z,39.78
2023-01-20T19:51:59.396Z,39.17
2023-01-20T19:54:31.878Z,41.03
2023-01-20T19:57:07.510Z,37.30
2023-01-20T19:59:34.309Z,37.03
2023-01-20T20:02:02.600Z,35.90
2023-01-20T20:04:30.417Z,41.33
2023-01-20T20:07:00.438Z,43.13
2023-01-20T20:09:32.264Z,40.42
2023-01-20T20:12:10.160Z,38.67
2023-01-20T20:14:38.443Z,37.80
2023-01-20T20:17:06.332Z,41.70
2023-01-20T20:19:35.061Z,41.80
2023-01-20T20:22:02.404Z,35.42
2023-01-20T20:24:30.387Z,37.40
2023-01-20T20:26:58.426Z,38.97
2023-01-20T20:29:26.309Z,34.90
2023-01-20T20:32:20.347Z,42.78
2023-01-20T20:34:48.640Z,35.63
2023-01-20T20:37:16.316Z,35.35
2023-01-20T20:39:58.535Z,35.13
2023-01-20T20:45:19.156Z,37.40
2023-01-20T20:47:49.669Z,31.67
2023-01-20T20:50:21.955Z,35.85
2023-01-20T20:53:14.512Z,38.80
2023-01-20T20:55:42.269Z,37.95
2023-01-20T20:58:10.228Z,40.83
2023-01-20T21:00:38.473Z,38.22
2023-01-20T21:03:11.039Z,32.83
2023-01-20T21:05:38.269Z,40.53
2023-01-20T21:08:06.376Z,35.05
2023-01-20T21:10:40.533Z,44.65
2023-01-20T21:13:08.608Z,43.70
2023-01-20T21:15:37.754Z,35.35
2023-01-20T21:18:06.273Z,39.67
2023-01-20T21:23:27.925Z,31.63
2023-01-20T21:26:12.815Z,32.42
2023-01-20T21:28:40.886Z,33.70
2023-01-20T21:31:10.681Z,34.88
2023-01-20T21:33:40.250Z,40.08
2023-01-20T21:36:09.619Z,35.67
2023-01-20T21:39:05.344Z,39.47
2023-01-20T21:41:37.270Z,40.20
2023-01-20T21:44:23.356Z,32.33
2023-01-20T21:46:50.473Z,32.13
2023-01-20T21:49:36.838Z,32.33
2023-01-20T21:52:34.509Z,37.85
2023-01-20T21:55:02.747Z,33.90
2023-01-20T21:57:32.500Z,27.67
2023-01-20T22:00:01.294Z,33.47
2023-01-20T22:02:39.017Z,29.65
2023-01-20T22:05:07.403Z,32.13
2023-01-20T22:07:34.248Z,36.20
2023-01-20T22:10:02.533Z,31.45
2023-01-20T22:12:35.593Z,33.83
2023-01-20T22:15:04.997Z,31.75
2023-01-20T22:17:32.695Z,37.08
2023-01-20T22:20:00.235Z,31.77
2023-01-20T22:22:28.301Z,37.30
2023-01-20T22:27:48.742Z,40.47
2023-01-20T22:30:16.752Z,31.10
2023-01-20T22:32:44.238Z,30.75
2023-01-20T22:35:36.219Z,29.63
2023-01-20T22:38:04.225Z,32.05
2023-01-20T22:40:34.206Z,33.25
2023-01-20T22:43:27.535Z,33.20
2023-01-20T22:45:59.078Z,31.88
2023-01-20T22:48:26.808Z,34.28
2023-01-20T22:50:54.685Z,26.35
2023-01-20T22:53:28.222Z,35.08
2023-01-20T22:56:12.400Z,29.10
2023-01-20T22:58:41.126Z,29.10
2023-01-20T23:01:13.519Z,31.48
2023-01-20T23:03:43.441Z,32.35
2023-01-20T23:06:16.411Z,28.65
2023-01-20T23:08:49.647Z,31.30
2023-01-20T23:11:19.786Z,39.60
2023-01-20T23:14:13.674Z,35.03
2023-01-20T23:16:47.921Z,25.98
2023-01-20T23:19:16.263Z,34.80
2023-01-20T23:21:44.403Z,35.75
2023-01-20T23:24:12.339Z,36.30
2023-01-20T23:27:09.325Z,27.25
2023-01-20T23:29:36.206Z,32.25
2023-01-20T23:32:04.535Z,33.10
2023-01-20T23:34:32.375Z,34.58
2023-01-20T23:37:00.318Z,40.25
2023-01-20T23:39:28.205Z,37.83
2023-01-20T23:41:56.634Z,32.90
2023-01-20T23:44:56.528Z,36.78
2023-01-20T23:47:24.373Z,33.88
2023-01-20T23:49:52.290Z,29.42
2023-01-20T23:52:21.622Z,31.45
2023-01-20T23:54:55.538Z,28.17
2023-01-20T23:57:22.734Z,26.77
